Time;durP1;ratioP1;P1;durP2;ratioP2;P2;SDS_P1;SDS_P2;PMS_P1;PMS_P2;Temp;Humidity;BMP_temperature;BMP_pressure;BME280_temperature;BME280_humidity;BME280_pressure;Samples;Min_cycle;Max_cycle;Signal;HPM_P1;HPM_P2
2022/07/15 00:01:00;;;;;;;;;7.00;7.00;;;;;24.81;36.02;101741.22;4875582;29;45317;-72
2022/07/15 00:03:25;;;;;;;;;7.25;6.00;;;;;24.68;36.23;101727.66;4872681;29;45232;-71
2022/07/15 00:05:51;;;;;;;;;6.00;6.00;;;;;24.64;36.90;101734.31;4867567;29;45218;-71
2022/07/15 00:08:16;;;;;;;;;5.50;5.00;;;;;24.64;37.27;101729.75;4874677;29;45961;-73
2022/07/15 00:10:42;;;;;;;;;5.75;5.50;;;;;24.67;36.97;101734.97;4885745;29;45213;-71
2022/07/15 00:13:07;;;;;;;;;0.25;0.25;;;;;24.68;36.92;101735.84;4884855;29;45395;-71
2022/07/15 00:15:32;;;;;;;;;7.00;7.00;;;;;24.60;36.85;101731.81;4870135;29;46157;-73
2022/07/15 00:18:01;;;;;;;;;6.25;6.25;;;;;24.50;36.83;101724.44;4867635;29;46277;-73
2022/07/15 00:20:33;;;;;;;;;6.50;6.50;;;;;24.51;37.24;101734.38;4883686;29;45727;-71
2022/07/15 00:22:59;;;;;;;;;7.25;6.25;;;;;24.47;36.99;101741.03;4881379;29;45513;-72
2022/07/15 00:25:24;;;;;;;;;7.00;5.50;;;;;24.47;37.58;101741.03;4885497;29;45303;-71
2022/07/15 00:27:59;;;;;;;;;6.25;5.75;;;;;24.49;37.63;101748.13;4884132;29;46496;-72
2022/07/15 00:30:29;;;;;;;;;5.25;5.25;;;;;24.36;37.58;101726.34;4870175;29;45397;-71
2022/07/15 00:32:55;;;;;;;;;6.75;5.75;;;;;24.39;37.59;101733.41;4885745;29;45482;-71
2022/07/15 00:35:20;;;;;;;;;7.00;4.00;;;;;24.39;37.68;101745.22;4885500;29;45137;-71
2022/07/15 00:37:46;;;;;;;;;6.00;6.00;;;;;24.33;37.92;101742.94;4879692;29;45457;-71
2022/07/15 00:40:12;;;;;;;;;6.75;4.50;;;;;24.35;37.73;101754.63;4891592;29;45268;-71
2022/07/15 00:42:43;;;;;;;;;4.50;4.50;;;;;24.29;37.54;101752.38;4871952;29;45411;-72
2022/07/15 00:45:10;;;;;;;;;6.50;6.50;;;;;24.15;37.77;101742.47;4872790;29;45277;-72
2022/07/15 00:47:35;;;;;;;;;10.00;10.00;;;;;24.16;37.63;101740.63;4866927;29;46210;-74
2022/07/15 00:50:00;;;;;;;;;9.00;8.00;;;;;24.14;38.12;101746.19;4870568;29;45502;-74
2022/07/15 00:52:28;;;;;;;;;7.75;7.75;;;;;24.21;37.96;101768.44;4895601;28;47381;-74
2022/07/15 00:54:58;;;;;;;;;6.25;5.25;;;;;24.20;38.15;101766.69;4874774;29;45534;-74
2022/07/15 00:57:26;;;;;;;;;7.00;6.25;;;;;24.18;38.08;101763.19;4876640;29;45560;-74
2022/07/15 00:59:53;;;;;;;;;5.25;5.00;;;;;24.15;37.89;101766.16;4873237;29;45637;-74
2022/07/15 01:02:19;;;;;;;;;6.50;5.00;;;;;24.07;37.68;101761.25;4883587;29;45472;-74
2022/07/15 01:04:47;;;;;;;;;7.75;7.75;;;;;24.06;38.03;101773.16;4867026;29;45292;-73
2022/07/15 01:07:13;;;;;;;;;7.25;7.25;;;;;24.00;38.45;101787.22;4882027;29;45211;-74
2022/07/15 01:09:38;;;;;;;;;6.50;6.00;;;;;23.88;38.03;101766.31;4870153;29;45510;-74
2022/07/15 01:12:04;;;;;;;;;6.00;6.00;;;;;23.92;38.55;101782.31;4868497;29;45293;-74
2022/07/15 01:14:29;;;;;;;;;8.75;8.25;;;;;23.87;38.57;101781.78;4876766;29;45328;-74
2022/07/15 01:16:54;;;;;;;;;6.75;5.00;;;;;23.79;38.39;101784.16;4881915;29;45276;-74
2022/07/15 01:19:20;;;;;;;;;7.00;7.00;;;;;23.68;38.71;101783.06;4876436;29;45392;-74
2022/07/15 01:21:45;;;;;;;;;6.50;5.50;;;;;23.67;39.04;101792.25;4885087;29;45160;-73
2022/07/15 01:24:10;;;;;;;;;5.25;5.00;;;;;23.70;38.80;101803.91;4885305;29;45221;-73
2022/07/15 01:26:36;;;;;;;;;6.00;5.25;;;;;23.73;38.79;101801.84;4884863;29;45307;-73
2022/07/15 01:29:01;;;;;;;;;4.00;4.00;;;;;23.67;38.67;101797.72;4885338;29;45326;-73
2022/07/15 01:31:27;;;;;;;;;5.50;4.00;;;;;23.64;39.02;101797.06;4877623;29;45292;-73
2022/07/15 01:33:55;;;;;;;;;7.50;5.50;;;;;23.66;39.10;101798.69;4879972;29;45266;-74
2022/07/15 01:36:21;;;;;;;;;5.25;4.25;;;;;23.59;38.92;101791.94;4883026;28;45476;-73
2022/07/15 01:38:46;;;;;;;;;5.00;3.00;;;;;23.56;39.07;101794.88;4881083;29;45966;-73
2022/07/15 01:41:12;;;;;;;;;5.25;5.25;;;;;23.47;38.99;101784.59;4874453;29;45312;-74
2022/07/15 01:43:37;;;;;;;;;5.00;4.75;;;;;23.45;38.49;101792.00;4875347;29;45169;-74
2022/07/15 01:46:02;;;;;;;;;9.50;8.25;;;;;23.38;38.80;101804.34;4884458;29;45298;-73
2022/07/15 01:51:11;;;;;;;;;5.50;4.50;;;;;23.20;39.01;101787.41;4876548;29;45493;-73
2022/07/15 01:53:37;;;;;;;;;5.25;5.25;;;;;23.25;38.80;101801.59;4869947;29;45489;-73
2022/07/15 01:56:02;;;;;;;;;4.00;3.25;;;;;23.21;39.03;101800.94;4866328;29;45329;-74
2022/07/15 01:58:28;;;;;;;;;3.50;3.50;;;;;23.13;38.95;101803.31;4876891;29;45160;-73
2022/07/15 02:00:53;;;;;;;;;5.00;4.00;;;;;23.05;38.74;101800.19;4882617;29;45223;-72
2022/07/15 02:03:18;;;;;;;;;3.00;3.00;;;;;22.94;39.17;101782.75;4870128;29;45506;-72
2022/07/15 02:05:44;;;;;;;;;4.00;4.00;;;;;22.96;39.30;101784.50;4873406;29;45450;-72
2022/07/15 02:08:09;;;;;;;;;4.00;4.00;;;;;22.87;39.22;101784.16;4887202;28;45197;-72
2022/07/15 02:10:40;;;;;;;;;5.25;5.00;;;;;22.81;39.23;101780.97;4873676;29;45670;-72
2022/07/15 02:13:11;;;;;;;;;5.00;5.00;;;;;22.75;39.27;101791.31;4865902;29;45749;-72
2022/07/15 02:15:37;;;;;;;;;4.00;4.00;;;;;22.79;39.24;101789.25;4884522;29;45444;-72
2022/07/15 02:18:04;;;;;;;;;5.00;4.50;;;;;22.78;39.58;101786.63;4884335;29;45382;-72
2022/07/15 02:20:29;;;;;;;;;3.75;3.75;;;;;22.73;39.03;101784.22;4884525;29;45448;-72
2022/07/15 02:22:58;;;;;;;;;4.00;4.00;;;;;22.68;39.34;101783.66;4867780;29;45333;-72
2022/07/15 02:25:34;;;;;;;;;5.50;4.50;;;;;22.54;39.15;101790.88;4896876;29;47310;-72
2022/07/15 02:28:03;;;;;;;;;3.00;3.00;;;;;22.43;38.66;101790.72;4880621;29;45595;-72
2022/07/15 02:30:33;;;;;;;;;2.25;2.25;;;;;22.32;39.28;101787.81;4867064;29;45419;-72
2022/07/15 02:32:59;;;;;;;;;3.00;2.00;;;;;22.23;38.98;101780.25;4878896;29;45237;-72
2022/07/15 02:35:24;;;;;;;;;5.00;4.00;;;;;22.20;39.24;101792.19;4881582;29;46188;-72
2022/07/15 02:37:50;;;;;;;;;4.25;4.25;;;;;22.11;39.64;101776.47;4878091;29;45469;-72
2022/07/15 02:40:16;;;;;;;;;4.00;4.00;;;;;22.10;39.27;101789.22;4882704;29;45218;-72
2022/07/15 02:42:50;;;;;;;;;2.50;2.50;;;;;22.09;39.12;101803.75;4872689;29;45550;-73
2022/07/15 02:45:17;;;;;;;;;4.75;4.75;;;;;21.98;39.19;101795.41;4880390;29;45275;-72
2022/07/15 02:47:42;;;;;;;;;6.00;4.00;;;;;21.84;39.42;101780.00;4885500;29;45427;-71
2022/07/15 02:50:08;;;;;;;;;4.50;3.00;;;;;21.90;39.71;101801.34;4877099;29;45327;-70
2022/07/15 02:52:34;;;;;;;;;2.75;2.75;;;;;21.82;39.97;101793.69;4885494;29;45311;-71
2022/07/15 02:55:00;;;;;;;;;4.00;3.00;;;;;21.70;40.25;101789.03;4868799;28;45374;-70
2022/07/15 02:57:25;;;;;;;;;2.25;2.25;;;;;21.75;39.90;101802.31;4878307;29;45330;-73
2022/07/15 02:59:51;;;;;;;;;3.00;2.75;;;;;21.76;40.10;101802.22;4869402;29;45353;-72
2022/07/15 03:02:16;;;;;;;;;3.00;3.00;;;;;21.74;39.64;101798.72;4875378;29;56920;-71
2022/07/15 03:04:42;;;;;;;;;3.25;3.00;;;;;21.79;40.42;101809.31;4867937;29;46372;-71
2022/07/15 03:07:07;;;;;;;;;2.75;2.75;;;;;21.82;40.08;101809.13;4876938;29;45240;-71
2022/07/15 03:09:32;;;;;;;;;3.25;2.50;;;;;21.70;39.73;101802.63;4883611;29;45289;-71
2022/07/15 03:11:57;;;;;;;;;4.00;4.00;;;;;21.73;40.05;101809.69;4871787;29;54416;-71
2022/07/15 03:14:23;;;;;;;;;4.50;3.50;;;;;21.77;39.87;101806.69;4877622;29;45424;-71
2022/07/15 03:16:48;;;;;;;;;2.50;2.00;;;;;21.71;39.93;101811.63;4865241;29;45274;-71
2022/07/15 03:19:13;;;;;;;;;2.00;2.00;;;;;21.70;40.19;101805.34;4881192;29;45277;-71
2022/07/15 03:21:39;;;;;;;;;4.50;4.50;;;;;21.63;39.77;101801.22;4873451;29;45392;-71
2022/07/15 03:24:04;;;;;;;;;3.00;3.00;;;;;21.64;39.90;101819.28;4878457;29;45379;-71
2022/07/15 03:26:29;;;;;;;;;6.75;5.00;;;;;21.60;40.29;101818.63;4876423;29;45296;-71
2022/07/15 03:28:57;;;;;;;;;4.50;3.50;;;;;21.59;40.42;101810.56;4868182;29;45313;-71
2022/07/15 03:31:22;;;;;;;;;3.75;3.75;;;;;21.55;40.35;101809.88;4889523;29;45348;-71
2022/07/15 03:33:48;;;;;;;;;5.00;5.00;;;;;21.59;40.56;101816.84;4888541;29;45469;-71
2022/07/15 03:36:13;;;;;;;;;6.75;4.75;;;;;21.61;39.88;101808.59;4879066;29;45379;-71
2022/07/15 03:38:39;;;;;;;;;5.75;5.75;;;;;21.58;40.48;101806.06;4870960;29;45454;-71
2022/07/15 03:41:04;;;;;;;;;5.00;5.00;;;;;21.55;40.45;101800.81;4884010;29;46932;-71
2022/07/15 03:43:30;;;;;;;;;6.00;4.75;;;;;21.50;40.57;101789.38;4887961;29;45285;-72
2022/07/15 03:45:56;;;;;;;;;5.25;4.00;;;;;21.52;40.61;101796.47;4877922;29;45330;-72
2022/07/15 03:48:21;;;;;;;;;5.50;5.50;;;;;21.52;40.43;101799.19;4883611;29;45341;-72
2022/07/15 03:50:47;;;;;;;;;2.75;2.75;;;;;21.52;40.61;101790.16;4867772;29;45443;-73
2022/07/15 03:53:13;;;;;;;;;4.00;2.75;;;;;21.57;40.35;101801.63;4867484;29;45349;-72
2022/07/15 03:55:38;;;;;;;;;2.75;2.75;;;;;21.51;40.69;101800.16;4874202;29;45381;-73
2022/07/15 03:58:05;;;;;;;;;5.00;3.00;;;;;21.52;40.19;101803.72;4878346;29;45251;-73
2022/07/15 04:00:30;;;;;;;;;3.25;3.00;;;;;21.46;40.32;101805.81;4872706;29;45470;-71
2022/07/15 04:02:56;;;;;;;;;4.00;4.00;;;;;21.44;40.50;101810.50;4867378;29;45483;-71
2022/07/15 04:05:21;;;;;;;;;3.00;3.00;;;;;21.40;41.01;101797.19;4867659;29;45253;-70
2022/07/15 04:07:47;;;;;;;;;2.25;2.25;;;;;21.54;40.69;101813.53;4875376;29;45210;-70
2022/07/15 04:10:13;;;;;;;;;4.00;4.00;;;;;21.45;40.69;101806.81;4876419;29;45350;-70
2022/07/15 04:12:38;;;;;;;;;4.50;3.50;;;;;21.41;40.38;101810.66;4882259;29;45382;-70
2022/07/15 04:15:04;;;;;;;;;4.00;4.00;;;;;21.35;40.54;101821.03;4876579;29;45442;-71
2022/07/15 04:17:30;;;;;;;;;3.00;3.00;;;;;21.25;41.07;101810.75;4884287;29;45342;-71
2022/07/15 04:19:55;;;;;;;;;4.00;4.00;;;;;21.19;41.14;101813.81;4867349;29;45276;-73
2022/07/15 04:22:20;;;;;;;;;3.00;3.00;;;;;21.15;41.02;101817.69;4886095;29;51665;-72
2022/07/15 04:24:46;;;;;;;;;5.00;3.75;;;;;21.15;41.06;101820.41;4881583;29;45512;-72
2022/07/15 04:27:11;;;;;;;;;2.00;2.00;;;;;21.15;41.26;101828.56;4869618;29;45496;-72
2022/07/15 04:29:36;;;;;;;;;3.00;3.00;;;;;21.19;41.69;101826.53;4877266;29;45368;-72
2022/07/15 04:32:02;;;;;;;;;6.00;4.00;;;;;21.19;41.37;101815.69;4867810;29;46001;-81
2022/07/15 04:34:28;;;;;;;;;4.00;4.00;;;;;21.20;41.56;101809.25;4870886;29;45302;-71
2022/07/15 04:36:53;;;;;;;;;4.00;4.00;;;;;21.28;41.55;101824.16;4876454;29;45462;-69
2022/07/15 04:39:18;;;;;;;;;97.67;90.33;;;;;21.19;41.38;101816.53;4884905;29;45191;-70
2022/07/15 04:41:44;;;;;;;;;30.00;28.50;;;;;21.33;41.70;101833.84;4878090;29;45934;-68
2022/07/15 04:44:09;;;;;;;;;3.50;3.50;;;;;21.27;41.52;101835.09;4890367;29;45231;-70
2022/07/15 04:46:34;;;;;;;;;7.25;5.50;;;;;21.25;41.35;101835.19;4889725;29;45373;-69
2022/07/15 04:51:43;;;;;;;;;3.75;3.75;;;;;21.14;41.52;101826.81;4873930;29;45773;-69
2022/07/15 04:54:09;;;;;;;;;4.50;4.50;;;;;21.09;41.36;101832.50;4870213;29;45185;-68
2022/07/15 04:56:34;;;;;;;;;4.75;3.75;;;;;21.01;42.18;101833.94;4877277;29;45210;-68
2022/07/15 04:59:00;;;;;;;;;5.50;4.50;;;;;21.04;42.12;101834.63;4867830;29;45669;-68
2022/07/15 05:01:25;;;;;;;;;4.50;4.50;;;;;21.06;42.30;101838.09;4871718;29;46280;-69
2022/07/15 05:03:50;;;;;;;;;3.25;3.00;;;;;21.09;42.11;101835.22;4868378;29;45486;-72
2022/07/15 05:06:15;;;;;;;;;4.25;4.25;;;;;21.12;42.13;101839.59;4880909;29;45394;-72
2022/07/15 05:08:41;;;;;;;;;6.75;4.50;;;;;21.07;41.90;101826.28;4887300;29;45208;-72
2022/07/15 05:11:06;;;;;;;;;4.25;4.25;;;;;21.21;42.46;101846.31;4884799;29;45319;-68
2022/07/15 05:13:31;;;;;;;;;5.25;5.00;;;;;21.28;42.13;101858.53;4882858;29;45309;-68
2022/07/15 05:15:57;;;;;;;;;5.00;4.00;;;;;21.24;42.30;101847.00;4884652;29;45363;-69
2022/07/15 05:18:22;;;;;;;;;6.50;6.50;;;;;21.32;42.09;101859.22;4884900;29;45336;-69
2022/07/15 05:20:48;;;;;;;;;4.25;3.25;;;;;21.29;42.16;101854.88;4882290;29;45462;-70
2022/07/15 05:23:16;;;;;;;;;7.25;5.50;;;;;21.26;42.59;101855.06;4885034;29;45420;-67
2022/07/15 05:25:42;;;;;;;;;4.00;4.00;;;;;21.27;42.47;101863.13;4880427;29;46445;-68
2022/07/15 05:28:08;;;;;;;;;5.50;5.00;;;;;21.25;42.72;101854.19;4884983;29;45302;-68
2022/07/15 05:30:36;;;;;;;;;7.50;5.00;;;;;21.20;42.78;101847.28;4868451;29;46147;-68
2022/07/15 05:33:02;;;;;;;;;4.00;4.00;;;;;21.20;42.53;101858.13;4875048;29;45546;-68
2022/07/15 05:35:27;;;;;;;;;5.50;5.00;;;;;21.24;43.04;101865.16;4885991;29;45292;-68
2022/07/15 05:37:52;;;;;;;;;7.00;7.00;;;;;21.19;42.47;101869.97;4884671;29;45509;-68
2022/07/15 05:40:18;;;;;;;;;4.75;3.75;;;;;21.04;42.85;101861.75;4881070;29;46705;-68
2022/07/15 05:42:43;;;;;;;;;7.75;5.00;;;;;21.07;43.04;101879.72;4869507;29;45532;-68
2022/07/15 05:45:09;;;;;;;;;6.25;4.75;;;;;21.00;43.20;101870.16;4884928;29;45303;-68
2022/07/15 05:47:34;;;;;;;;;5.00;5.00;;;;;20.92;43.06;101873.34;4875983;29;45464;-68
2022/07/15 05:50:00;;;;;;;;;4.25;4.25;;;;;20.88;43.01;101880.78;4866063;29;45436;-68
2022/07/15 05:52:25;;;;;;;;;5.50;5.00;;;;;20.86;43.69;101877.28;4869619;29;45460;-68
2022/07/15 05:54:50;;;;;;;;;5.00;4.00;;;;;20.88;43.66;101882.63;4865912;29;45344;-68
2022/07/15 05:57:16;;;;;;;;;5.00;5.00;;;;;20.83;43.93;101882.00;4870923;29;45284;-68
2022/07/15 05:59:41;;;;;;;;;4.75;4.75;;;;;20.77;43.74;101875.09;4881246;29;45331;-68
2022/07/15 06:02:06;;;;;;;;;7.00;7.00;;;;;20.90;43.85;101886.13;4871351;29;45416;-68
2022/07/15 06:04:32;;;;;;;;;6.00;6.00;;;;;20.92;43.79;101886.91;4877484;29;45279;-68
2022/07/15 06:06:57;;;;;;;;;6.50;5.00;;;;;20.93;44.22;101891.34;4865520;29;53663;-68
2022/07/15 06:09:23;;;;;;;;;5.75;5.00;;;;;20.91;44.09;101885.16;4874967;29;47123;-68
2022/07/15 06:11:48;;;;;;;;;6.25;5.50;;;;;20.90;44.13;101888.84;4878855;29;45731;-68
2022/07/15 06:14:13;;;;;;;;;5.25;4.25;;;;;20.92;44.62;101895.94;4883168;29;45373;-66
2022/07/15 06:16:39;;;;;;;;;6.50;5.50;;;;;20.86;44.05;101880.00;4879302;29;45417;-68
2022/07/15 06:19:04;;;;;;;;;8.25;4.50;;;;;20.95;44.55;101889.47;4869579;29;46101;-69
2022/07/15 06:21:32;;;;;;;;;6.25;5.25;;;;;20.97;44.05;101884.81;4870069;29;45304;-69
2022/07/15 06:23:57;;;;;;;;;5.00;5.00;;;;;20.95;44.08;101894.88;4894445;29;45318;-69
2022/07/15 06:26:23;;;;;;;;;5.75;4.25;;;;;20.82;44.38;101894.72;4879580;29;57240;-69
2022/07/15 06:28:49;;;;;;;;;7.75;6.00;;;;;20.79;44.73;101891.31;4867988;29;45431;-69
2022/07/15 06:31:14;;;;;;;;;4.00;2.00;;;;;20.75;45.01;101890.59;4866359;29;45589;-68
2022/07/15 06:33:39;;;;;;;;;7.25;5.00;;;;;20.71;44.38;101887.19;4881430;29;45705;-69
2022/07/15 06:36:05;;;;;;;;;7.50;5.50;;;;;20.71;44.68;101898.06;4877138;29;57555;-72
2022/07/15 06:38:32;;;;;;;;;7.00;7.00;;;;;20.62;45.00;101901.25;4879462;29;48133;-73
2022/07/15 06:40:57;;;;;;;;;7.00;6.25;;;;;20.66;44.73;101915.53;4865434;29;45256;-73
2022/07/15 06:43:22;;;;;;;;;7.00;6.25;;;;;20.59;44.73;101911.38;4884040;29;45358;-72
2022/07/15 06:45:48;;;;;;;;;7.25;4.75;;;;;20.59;45.02;101919.53;4882280;29;45425;-72
2022/07/15 06:48:13;;;;;;;;;5.00;5.00;;;;;20.58;45.25;101909.63;4881173;29;45780;-73
2022/07/15 06:50:39;;;;;;;;;9.25;7.75;;;;;20.55;45.63;101892.56;4880549;29;45318;-74
2022/07/15 06:53:04;;;;;;;;;7.25;5.50;;;;;20.67;44.71;101909.16;4881393;29;45359;-73
2022/07/15 06:55:30;;;;;;;;;5.75;5.00;;;;;20.76;44.36;101922.19;4883350;29;45590;-72
2022/07/15 06:57:55;;;;;;;;;3.50;3.50;;;;;20.71;44.28;101913.44;4881158;29;45407;-73
2022/07/15 07:00:20;;;;;;;;;5.00;4.00;;;;;20.72;44.14;101916.06;4886129;29;45333;-72
2022/07/15 07:02:46;;;;;;;;;2.25;2.25;;;;;20.71;43.98;101913.44;4885413;29;45313;-72
2022/07/15 07:05:11;;;;;;;;;4.00;3.25;;;;;20.75;44.23;101916.84;4885227;29;45573;-73
2022/07/15 07:07:37;;;;;;;;;4.25;4.25;;;;;20.78;43.97;101909.44;4879084;29;45955;-69
2022/07/15 07:10:03;;;;;;;;;4.50;4.00;;;;;20.79;44.01;101915.72;4890922;29;45358;-69
2022/07/15 07:12:28;;;;;;;;;3.00;3.00;;;;;20.81;44.55;101913.78;4891133;29;45516;-68
2022/07/15 07:14:53;;;;;;;;;6.00;6.00;;;;;20.81;43.63;101911.06;4879206;29;45467;-74
2022/07/15 07:17:19;;;;;;;;;6.00;6.00;;;;;20.80;43.90;101895.75;4868102;29;46667;-73
2022/07/15 07:19:44;;;;;;;;;5.50;5.00;;;;;20.83;44.17;101922.72;4868512;29;45263;-72
2022/07/15 07:22:10;;;;;;;;;7.00;6.00;;;;;20.85;43.41;101902.69;4868205;29;45769;-70
2022/07/15 07:24:35;;;;;;;;;5.25;4.25;;;;;20.89;43.15;101904.25;4883039;29;45400;-69
2022/07/15 07:27:00;;;;;;;;;3.25;3.25;;;;;20.90;42.96;101906.00;4883741;29;46445;-71
2022/07/15 07:29:26;;;;;;;;;4.25;4.25;;;;;20.97;43.32;101906.53;4867770;29;45612;-73
2022/07/15 07:31:52;;;;;;;;;4.50;4.00;;;;;20.95;43.28;101903.03;4867517;29;45347;-72
2022/07/15 07:34:17;;;;;;;;;4.00;4.00;;;;;21.01;43.40;101899.06;4885949;29;45506;-73
2022/07/15 07:36:44;;;;;;;;;4.50;3.50;;;;;21.12;43.42;101906.56;4878017;29;46179;-73
2022/07/15 07:39:10;;;;;;;;;4.75;4.00;;;;;21.13;42.71;101894.75;4879287;29;45501;-73
2022/07/15 07:41:35;;;;;;;;;5.00;3.00;;;;;21.24;42.83;101903.16;4870724;29;45233;-73
2022/07/15 07:44:01;;;;;;;;;3.50;3.00;;;;;21.29;43.05;101892.91;4882879;29;45454;-73
2022/07/15 07:46:26;;;;;;;;;3.00;3.00;;;;;21.35;43.01;101887.09;4873467;29;45376;-73
2022/07/15 07:48:51;;;;;;;;;4.00;4.00;;;;;21.51;42.41;101895.22;4868127;29;45249;-72
2022/07/15 07:51:17;;;;;;;;;5.00;5.00;;;;;21.59;42.03;101895.63;4876120;29;45219;-72
2022/07/15 07:53:43;;;;;;;;;5.00;4.00;;;;;21.64;41.49;101898.09;4867397;29;45268;-73
2022/07/15 07:56:08;;;;;;;;;3.50;3.50;;;;;21.65;42.39;101892.56;4882144;29;47321;-72
2022/07/15 07:58:34;;;;;;;;;5.00;4.00;;;;;21.60;41.56;101874.78;4867837;29;45292;-73
2022/07/15 08:01:00;;;;;;;;;3.75;3.75;;;;;21.69;41.22;101876.06;4873470;29;45378;-73
2022/07/15 08:03:27;;;;;;;;;3.00;3.00;;;;;21.74;41.47;101880.25;4877764;29;45707;-73
2022/07/15 08:05:53;;;;;;;;;5.00;3.00;;;;;21.83;41.14;101887.84;4872807;29;46004;-73
2022/07/15 08:08:20;;;;;;;;;0.75;0.75;;;;;21.83;40.43;101871.53;4867566;29;45146;-73
2022/07/15 08:10:48;;;;;;;;;5.25;2.75;;;;;21.94;41.11;101880.88;4884105;29;45262;-71
2022/07/15 08:13:16;;;;;;;;;3.00;2.00;;;;;21.99;40.07;101885.03;4880109;29;45333;-69
2022/07/15 08:15:41;;;;;;;;;2.00;2.00;;;;;22.04;39.86;101876.59;4884693;29;45453;-68
2022/07/15 08:18:07;;;;;;;;;2.00;2.00;;;;;22.02;39.41;101883.97;4867499;29;45356;-71
2022/07/15 08:20:33;;;;;;;;;2.00;2.00;;;;;22.07;39.69;101884.56;4869198;29;45571;-68
2022/07/15 08:23:00;;;;;;;;;3.00;2.75;;;;;22.07;39.06;101873.69;4876313;29;45453;-70
2022/07/15 08:25:31;;;;;;;;;3.00;3.00;;;;;22.13;39.33;101877.84;4882582;29;48229;-69
2022/07/15 08:27:58;;;;;;;;;2.75;2.50;;;;;22.22;39.96;101871.84;4880078;29;45339;-69
2022/07/15 08:30:25;;;;;;;;;2.75;2.75;;;;;22.29;39.33;101872.34;4871616;29;45317;-68
2022/07/15 08:32:50;;;;;;;;;3.75;3.00;;;;;22.29;39.43;101881.38;4883618;29;45315;-71
2022/07/15 08:35:16;;;;;;;;;4.50;3.00;;;;;22.27;39.18;101874.25;4867185;29;45164;-70
2022/07/15 08:37:41;;;;;;;;;4.75;3.50;;;;;22.28;38.25;101884.16;4876270;29;45153;-71
2022/07/15 08:40:10;;;;;;;;;3.75;3.00;;;;;22.26;39.31;101886.97;4886437;29;45339;-68
2022/07/15 08:42:39;;;;;;;;;2.00;2.00;;;;;22.31;38.74;101892.16;4874909;29;45308;-68
2022/07/15 08:45:06;;;;;;;;;3.00;3.00;;;;;22.31;38.61;101882.16;4879032;29;45987;-68
2022/07/15 08:47:32;;;;;;;;;4.25;3.00;;;;;22.43;39.01;101885.06;4884894;29;45392;-70
2022/07/15 08:49:58;;;;;;;;;3.00;3.00;;;;;22.46;38.51;101874.00;4888422;29;45223;-70
2022/07/15 08:52:25;;;;;;;;;2.00;2.00;;;;;22.44;38.78;101859.63;4887535;29;46158;-69
2022/07/15 08:54:51;;;;;;;;;5.00;3.00;;;;;22.57;39.06;101879.63;4883449;29;46374;-70
2022/07/15 08:57:17;;;;;;;;;5.00;4.00;;;;;22.63;38.68;101864.72;4882711;29;45379;-70
2022/07/15 08:59:45;;;;;;;;;4.00;2.25;;;;;22.65;37.98;101860.03;4885296;29;45410;-67
2022/07/15 09:02:12;;;;;;;;;3.00;3.00;;;;;22.73;38.28;101866.72;4872596;29;45462;-70
2022/07/15 09:05:16;;;;;;;;;2.00;2.00;;;;;22.77;37.91;101870.13;4885183;29;45315;-71
2022/07/15 09:08:01;;;;;;;;;2.00;2.00;;;;;22.76;37.59;101862.94;4877060;29;45378;-70
2022/07/15 09:10:44;;;;;;;;;1.75;1.75;;;;;22.72;37.57;101859.53;4874824;29;45448;-70
2022/07/15 09:13:24;;;;;;;;;2.00;2.00;;;;;22.74;37.35;101868.47;4883446;29;45406;-69
2022/07/15 09:15:50;;;;;;;;;3.50;2.50;;;;;22.79;37.50;101860.00;4885311;29;45391;-67
2022/07/15 09:18:22;;;;;;;;;2.25;2.00;;;;;22.76;37.07;101854.78;4885596;29;45418;-67
2022/07/15 09:20:48;;;;;;;;;2.00;2.00;;;;;22.82;36.85;101861.66;4885071;29;45344;-72
2022/07/15 09:23:20;;;;;;;;;1.75;1.75;;;;;22.82;37.31;101864.38;4886170;29;45296;-71
2022/07/15 09:25:49;;;;;;;;;2.75;2.75;;;;;22.88;37.49;101863.97;4877573;29;46952;-71
2022/07/15 09:28:15;;;;;;;;;2.00;2.00;;;;;22.91;36.59;101869.22;4875770;29;45437;-71
2022/07/15 09:33:34;;;;;;;;;1.25;1.25;;;;;22.87;36.82;101863.09;4885101;29;45393;-72
2022/07/15 09:36:08;;;;;;;;;3.00;2.00;;;;;22.92;36.55;101854.59;4873233;29;46183;-72
2022/07/15 09:38:55;;;;;;;;;2.50;2.00;;;;;22.96;36.96;101852.56;4868649;29;45646;-71
2022/07/15 09:41:40;;;;;;;;;3.00;1.75;;;;;23.10;36.68;101852.53;4871585;29;45279;-71
2022/07/15 09:44:16;;;;;;;;;3.00;2.00;;;;;23.21;37.18;101843.66;4877099;29;45332;-70
2022/07/15 09:46:41;;;;;;;;;2.00;2.00;;;;;23.30;35.94;101849.34;4875283;29;45498;-73
2022/07/15 09:49:07;;;;;;;;;2.00;2.00;;;;;23.31;35.33;101850.19;4866081;29;45272;-72
2022/07/15 09:51:43;;;;;;;;;3.25;1.25;;;;;23.35;35.86;101846.28;4871458;29;45197;-71
2022/07/15 09:54:12;;;;;;;;;0.50;0.50;;;;;23.40;35.06;101845.97;4865982;29;45333;-72
2022/07/15 09:56:37;;;;;;;;;1.00;1.00;;;;;23.41;35.88;101850.44;4865858;29;46043;-71
2022/07/15 09:59:03;;;;;;;;;1.00;1.00;;;;;23.44;35.42;101847.50;4866171;29;45383;-71
2022/07/15 10:01:30;;;;;;;;;1.25;1.25;;;;;23.55;35.30;101846.75;4868719;29;45454;-71
2022/07/15 10:03:56;;;;;;;;;1.00;1.00;;;;;23.57;34.54;101842.06;4872483;29;45261;-71
2022/07/15 10:06:26;;;;;;;;;2.00;2.00;;;;;23.61;34.63;101844.47;4883693;29;45419;-71
2022/07/15 10:08:52;;;;;;;;;2.00;2.00;;;;;23.66;34.24;101841.41;4876706;29;45430;-73
2022/07/15 10:11:18;;;;;;;;;2.00;2.00;;;;;23.74;34.09;101841.75;4866133;29;45414;-71
2022/07/15 10:14:05;;;;;;;;;2.00;1.50;;;;;23.82;34.28;101846.69;4871699;29;45532;-71
2022/07/15 10:16:56;;;;;;;;;2.50;1.75;;;;;23.88;34.45;101846.25;4884343;29;46280;-72
2022/07/15 10:19:45;;;;;;;;;1.00;1.00;;;;;23.92;33.98;101836.00;4867436;29;45408;-71
2022/07/15 10:22:35;;;;;;;;;0.25;0.25;;;;;23.96;33.82;101837.53;4871904;29;45330;-71
2022/07/15 10:25:21;;;;;;;;;1.00;1.00;;;;;23.99;33.40;101821.81;4865752;29;45238;-71
2022/07/15 10:28:09;;;;;;;;;3.00;2.00;;;;;24.00;33.15;101830.88;4865580;29;46188;-71
2022/07/15 10:30:34;;;;;;;;;0.75;0.75;;;;;24.00;32.84;101830.88;4870426;29;45475;-71
2022/07/15 10:33:03;;;;;;;;;1.00;1.00;;;;;24.02;33.22;101826.16;4874498;29;45266;-71
2022/07/15 10:35:37;;;;;;;;;2.00;1.00;;;;;24.07;32.75;101825.84;4881228;29;45418;-71
2022/07/15 10:38:31;;;;;;;;;1.00;1.00;;;;;24.11;32.47;101817.31;4879594;29;46379;-71
2022/07/15 10:41:04;;;;;;;;;1.25;1.25;;;;;24.13;31.98;101814.50;4877653;29;45415;-69
2022/07/15 10:43:47;;;;;;;;;2.00;1.00;;;;;24.17;32.22;101821.44;4872799;29;45266;-69
2022/07/15 10:46:15;;;;;;;;;1.00;1.00;;;;;24.22;31.75;101802.88;4869656;29;45406;-69
2022/07/15 10:48:40;;;;;;;;;1.00;1.00;;;;;24.25;31.70;101810.84;4872017;29;45341;-64
2022/07/15 10:51:06;;;;;;;;;0.75;0.75;;;;;24.23;31.50;101796.47;4867525;29;45427;-70
2022/07/15 10:53:32;;;;;;;;;0.25;0.25;;;;;24.30;31.89;101810.53;4865197;29;45279;-68
2022/07/15 10:56:36;;;;;;;;;1.25;1.00;;;;;24.35;31.72;101806.44;4865468;29;45561;-69
2022/07/15 10:59:13;;;;;;;;;0.25;0.25;;;;;24.33;31.39;101800.25;4878340;29;47627;-67
2022/07/15 11:01:39;;;;;;;;;1.00;1.00;;;;;24.38;31.47;101795.31;4878642;29;45646;-69
2022/07/15 11:04:11;;;;;;;;;1.75;1.50;;;;;24.47;30.99;101801.94;4889387;29;45416;-67
2022/07/15 11:07:01;;;;;;;;;2.00;2.00;;;;;24.53;31.37;101798.75;4875938;29;45577;-71
2022/07/15 11:09:56;;;;;;;;;1.25;1.00;;;;;24.57;31.64;101792.13;4867724;29;46281;-69
2022/07/15 11:12:30;;;;;;;;;1.00;1.00;;;;;24.62;31.48;101786.31;4876066;29;45438;-69
2022/07/15 11:15:11;;;;;;;;;0.25;0.25;;;;;24.68;31.35;101790.44;4874926;29;45882;-68
2022/07/15 11:17:36;;;;;;;;;1.00;1.00;;;;;24.68;30.71;101788.59;4880016;29;45684;-68
2022/07/15 11:20:11;;;;;;;;;1.00;1.00;;;;;24.66;30.31;101793.28;4879845;29;45833;-68
2022/07/15 11:22:45;;;;;;;;;0.25;0.25;;;;;24.64;30.66;101787.09;4873792;29;45426;-70
2022/07/15 11:25:23;;;;;;;;;3.00;2.00;;;;;24.69;29.98;101797.63;4882254;29;45826;-71
2022/07/15 11:28:07;;;;;;;;;2.25;1.00;;;;;24.71;30.46;101780.16;4879900;29;45734;-71
2022/07/15 11:30:40;;;;;;;;;0.25;0.25;;;;;24.76;30.83;101766.16;4876653;29;46127;-70
2022/07/15 11:33:14;;;;;;;;;3.00;2.00;;;;;24.82;30.72;101765.69;4879439;29;45689;-71
2022/07/15 11:35:55;;;;;;;;;1.00;1.00;;;;;24.87;29.97;101770.78;4880006;29;45530;-72